sensor_id;sensor_type;location;lat;lon;timestamp;pressure;altitude;pressure_sealevel;temperature;humidity
63929;BME280;50105;46.522;6.626;2022-07-29T00:00:55;95916.50;;;22.35;50.29
63929;BME280;50105;46.522;6.626;2022-07-29T00:03:21;95903.31;;;22.35;50.06
63929;BME280;50105;46.522;6.626;2022-07-29T00:05:48;95903.31;;;22.35;50.21
63929;BME280;50105;46.522;6.626;2022-07-29T00:08:14;95903.31;;;22.35;50.10
63929;BME280;50105;46.522;6.626;2022-07-29T00:10:41;95894.69;;;22.33;50.24
63929;BME280;50105;46.522;6.626;2022-07-29T00:13:08;95905.94;;;22.35;50.07
63929;BME280;50105;46.522;6.626;2022-07-29T00:15:34;95902.47;;;22.34;49.95
63929;BME280;50105;46.522;6.626;2022-07-29T00:18:01;95899.97;;;22.33;49.85
63929;BME280;50105;46.522;6.626;2022-07-29T00:20:27;95903.44;;;22.33;49.84
63929;BME280;50105;46.522;6.626;2022-07-29T00:22:54;95906.09;;;22.33;50.18
63929;BME280;50105;46.522;6.626;2022-07-29T00:25:20;95899.97;;;22.33;50.00
63929;BME280;50105;46.522;6.626;2022-07-29T00:27:47;95903.56;;;22.32;50.09
63929;BME280;50105;46.522;6.626;2022-07-29T00:30:13;95908.84;;;22.32;49.99
63929;BME280;50105;46.522;6.626;2022-07-29T00:32:40;95901.91;;;22.31;49.88
63929;BME280;50105;46.522;6.626;2022-07-29T00:35:07;95917.63;;;22.32;50.08
63929;BME280;50105;46.522;6.626;2022-07-29T00:37:52;95916.91;;;22.30;50.00
63929;BME280;50105;46.522;6.626;2022-07-29T00:40:18;95913.44;;;22.30;49.73
63929;BME280;50105;46.522;6.626;2022-07-29T00:42:50;95916.91;;;22.30;49.67
63929;BME280;50105;46.522;6.626;2022-07-29T00:45:17;95918.59;;;22.31;49.79
63929;BME280;50105;46.522;6.626;2022-07-29T00:47:44;95912.47;;;22.31;49.93
63929;BME280;50105;46.522;6.626;2022-07-29T00:50:12;95927.34;;;22.32;49.61
63929;BME280;50105;46.522;6.626;2022-07-29T00:52:39;95916.09;;;22.30;49.71
63929;BME280;50105;46.522;6.626;2022-07-29T00:55:07;95919.72;;;22.29;50.10
63929;BME280;50105;46.522;6.626;2022-07-29T00:57:37;95919.72;;;22.29;49.85
63929;BME280;50105;46.522;6.626;2022-07-29T01:00:04;95911.78;;;22.29;49.97
63929;BME280;50105;46.522;6.626;2022-07-29T01:02:31;95913.59;;;22.28;49.90
63929;BME280;50105;46.522;6.626;2022-07-29T01:04:57;95908.31;;;22.28;50.00
63929;BME280;50105;46.522;6.626;2022-07-29T01:07:24;95912.75;;;22.28;49.89
63929;BME280;50105;46.522;6.626;2022-07-29T01:09:51;95923.31;;;22.28;49.83
63929;BME280;50105;46.522;6.626;2022-07-29T01:12:21;95910.09;;;22.28;49.60
63929;BME280;50105;46.522;6.626;2022-07-29T01:14:49;95905.81;;;22.27;49.79
63929;BME280;50105;46.522;6.626;2022-07-29T01:17:32;95912.75;;;22.28;49.89
63929;BME280;50105;46.522;6.626;2022-07-29T01:20:07;95906.78;;;22.26;49.89
63929;BME280;50105;46.522;6.626;2022-07-29T01:27:56;95910.22;;;22.26;50.14
63929;BME280;50105;46.522;6.626;2022-07-29T01:30:27;95911.06;;;22.27;49.69
63929;BME280;50105;46.522;6.626;2022-07-29T01:32:59;95906.91;;;22.24;49.65
63929;BME280;50105;46.522;6.626;2022-07-29T01:35:32;95903.28;;;22.25;49.87
63929;BME280;50105;46.522;6.626;2022-07-29T01:42:54;95900.78;;;22.24;49.76
63929;BME280;50105;46.522;6.626;2022-07-29T01:45:31;95900.78;;;22.24;49.91
63929;BME280;50105;46.522;6.626;2022-07-29T01:48:16;95908.72;;;22.24;49.90
63929;BME280;50105;46.522;6.626;2022-07-29T01:50:47;95906.06;;;22.24;49.73
63929;BME280;50105;46.522;6.626;2022-07-29T01:53:16;95909.69;;;22.22;49.85
63929;BME280;50105;46.522;6.626;2022-07-29T01:55:47;95910.53;;;22.23;49.70
63929;BME280;50105;46.522;6.626;2022-07-29T02:00:40;95909.69;;;22.22;49.71
63929;BME280;50105;46.522;6.626;2022-07-29T02:03:09;95907.19;;;22.21;49.70
63929;BME280;50105;46.522;6.626;2022-07-29T02:08:03;95911.66;;;22.20;49.73
63929;BME280;50105;46.522;6.626;2022-07-29T02:10:31;95909.94;;;22.19;49.57
63929;BME280;50105;46.522;6.626;2022-07-29T02:12:58;95908.16;;;22.20;49.80
63929;BME280;50105;46.522;6.626;2022-07-29T02:15:27;95911.66;;;22.20;49.49
63929;BME280;50105;46.522;6.626;2022-07-29T02:17:55;95913.44;;;22.20;49.87
63929;BME280;50105;46.522;6.626;2022-07-29T02:20:22;95913.56;;;22.18;49.58
63929;BME280;50105;46.522;6.626;2022-07-29T02:22:51;95915.22;;;22.19;49.51
63929;BME280;50105;46.522;6.626;2022-07-29T02:25:18;95915.22;;;22.19;49.62
63929;BME280;50105;46.522;6.626;2022-07-29T02:27:47;95904.66;;;22.19;49.62
63929;BME280;50105;46.522;6.626;2022-07-29T02:30:14;95908.28;;;22.18;49.65
63929;BME280;50105;46.522;6.626;2022-07-29T02:32:41;95893.31;;;22.19;49.54
63929;BME280;50105;46.522;6.626;2022-07-29T02:35:08;95903.00;;;22.18;49.53
63929;BME280;50105;46.522;6.626;2022-07-29T02:37:36;95897.72;;;22.18;49.58
63929;BME280;50105;46.522;6.626;2022-07-29T02:40:02;95910.94;;;22.18;49.51
63929;BME280;50105;46.522;6.626;2022-07-29T02:42:29;95907.44;;;22.18;49.66
63929;BME280;50105;46.522;6.626;2022-07-29T02:44:57;95904.00;;;22.17;49.45
63929;BME280;50105;46.522;6.626;2022-07-29T02:47:27;95906.63;;;22.17;49.72
63929;BME280;50105;46.522;6.626;2022-07-29T02:50:17;95906.63;;;22.17;49.70
63929;BME280;50105;46.522;6.626;2022-07-29T02:57:48;95910.09;;;22.18;49.24
63929;BME280;50105;46.522;6.626;2022-07-29T03:00:20;95910.25;;;22.16;49.46
63929;BME280;50105;46.522;6.626;2022-07-29T03:02:49;95920.81;;;22.16;49.19
63929;BME280;50105;46.522;6.626;2022-07-29T03:05:17;95922.59;;;22.16;49.46
63929;BME280;50105;46.522;6.626;2022-07-29T03:07:49;95926.09;;;22.16;49.12
63929;BME280;50105;46.522;6.626;2022-07-29T03:10:18;95913.84;;;22.15;49.53
63929;BME280;50105;46.522;6.626;2022-07-29T03:12:44;95913.84;;;22.15;49.44
63929;BME280;50105;46.522;6.626;2022-07-29T03:15:12;95919.97;;;22.16;49.52
63929;BME280;50105;46.522;6.626;2022-07-29T03:17:39;95923.56;;;22.15;49.50
63929;BME280;50105;46.522;6.626;2022-07-29T03:20:06;95929.66;;;22.15;49.24
63929;BME280;50105;46.522;6.626;2022-07-29T03:22:38;95924.38;;;22.15;49.59
63929;BME280;50105;46.522;6.626;2022-07-29T03:25:08;95917.44;;;22.14;49.43
63929;BME280;50105;46.522;6.626;2022-07-29T03:27:34;95917.44;;;22.14;49.14
63929;BME280;50105;46.522;6.626;2022-07-29T03:30:01;95921.88;;;22.14;49.19
63929;BME280;50105;46.522;6.626;2022-07-29T03:32:27;95918.44;;;22.13;49.27
63929;BME280;50105;46.522;6.626;2022-07-29T03:34:55;95915.78;;;22.13;49.17
63929;BME280;50105;46.522;6.626;2022-07-29T03:37:21;95914.94;;;22.13;49.12
63929;BME280;50105;46.522;6.626;2022-07-29T03:39:48;95918.44;;;22.13;49.25
63929;BME280;50105;46.522;6.626;2022-07-29T03:42:15;95915.78;;;22.13;49.16
63929;BME280;50105;46.522;6.626;2022-07-29T03:44:43;95918.44;;;22.13;49.16
63929;BME280;50105;46.522;6.626;2022-07-29T03:47:10;95921.06;;;22.13;49.29
63929;BME280;50105;46.522;6.626;2022-07-29T03:49:39;95916.78;;;22.12;49.17
63929;BME280;50105;46.522;6.626;2022-07-29T03:52:06;95923.00;;;22.11;49.23
63929;BME280;50105;46.522;6.626;2022-07-29T03:54:33;95923.84;;;22.12;49.46
63929;BME280;50105;46.522;6.626;2022-07-29T03:57:01;95924.69;;;22.12;49.40
63929;BME280;50105;46.522;6.626;2022-07-29T03:59:27;95924.69;;;22.12;49.42
63929;BME280;50105;46.522;6.626;2022-07-29T04:01:55;95928.28;;;22.11;49.27
63929;BME280;50105;46.522;6.626;2022-07-29T04:04:22;95923.00;;;22.11;49.33
63929;BME280;50105;46.522;6.626;2022-07-29T04:06:49;95934.41;;;22.12;48.92
63929;BME280;50105;46.522;6.626;2022-07-29T04:09:15;95938.00;;;22.11;48.94
63929;BME280;50105;46.522;6.626;2022-07-29T04:11:41;95937.16;;;22.10;49.13
63929;BME280;50105;46.522;6.626;2022-07-29T04:14:28;95934.41;;;22.12;49.01
63929;BME280;50105;46.522;6.626;2022-07-29T04:16:55;95938.00;;;22.11;49.39
63929;BME280;50105;46.522;6.626;2022-07-29T04:19:21;95936.19;;;22.11;49.26
63929;BME280;50105;46.522;6.626;2022-07-29T04:21:48;95937.16;;;22.10;49.24
63929;BME280;50105;46.522;6.626;2022-07-29T04:24:15;95937.16;;;22.10;49.38
63929;BME280;50105;46.522;6.626;2022-07-29T04:26:42;95932.72;;;22.11;49.12
63929;BME280;50105;46.522;6.626;2022-07-29T04:29:09;95937.16;;;22.10;49.22
63929;BME280;50105;46.522;6.626;2022-07-29T04:31:35;95938.00;;;22.11;49.31
63929;BME280;50105;46.522;6.626;2022-07-29T04:34:02;95947.72;;;22.10;49.18
63929;BME280;50105;46.522;6.626;2022-07-29T04:36:28;95951.34;;;22.09;49.46
63929;BME280;50105;46.522;6.626;2022-07-29T04:38:55;95956.63;;;22.09;49.67
63929;BME280;50105;46.522;6.626;2022-07-29T04:41:22;95956.63;;;22.09;49.24
63929;BME280;50105;46.522;6.626;2022-07-29T04:43:57;95958.41;;;22.08;49.47
63929;BME280;50105;46.522;6.626;2022-07-29T04:46:27;95956.63;;;22.09;49.25
63929;BME280;50105;46.522;6.626;2022-07-29T04:48:53;95955.75;;;22.08;49.12
63929;BME280;50105;46.522;6.626;2022-07-29T04:51:20;95956.63;;;22.09;49.56
63929;BME280;50105;46.522;6.626;2022-07-29T04:53:46;95961.03;;;22.08;49.59
63929;BME280;50105;46.522;6.626;2022-07-29T04:56:13;95960.22;;;22.08;49.51
63929;BME280;50105;46.522;6.626;2022-07-29T04:58:39;95964.53;;;22.09;49.39
63929;BME280;50105;46.522;6.626;2022-07-29T05:01:06;95965.50;;;22.08;49.68
63929;BME280;50105;46.522;6.626;2022-07-29T05:03:32;95968.81;;;22.10;49.34
63929;BME280;50105;46.522;6.626;2022-07-29T05:05:58;95972.44;;;22.09;49.34
63929;BME280;50105;46.522;6.626;2022-07-29T05:08:25;95977.72;;;22.09;49.36
63929;BME280;50105;46.522;6.626;2022-07-29T05:10:51;95977.72;;;22.09;49.80
63929;BME280;50105;46.522;6.626;2022-07-29T05:13:18;95971.72;;;22.07;49.72
63929;BME280;50105;46.522;6.626;2022-07-29T05:15:44;95976.06;;;22.08;49.72
63929;BME280;50105;46.522;6.626;2022-07-29T05:18:11;95970.78;;;22.08;49.30
63929;BME280;50105;46.522;6.626;2022-07-29T05:20:37;95979.66;;;22.07;49.71
63929;BME280;50105;46.522;6.626;2022-07-29T05:23:04;95981.34;;;22.08;49.35
63929;BME280;50105;46.522;6.626;2022-07-29T05:25:30;95986.63;;;22.08;49.63
63929;BME280;50105;46.522;6.626;2022-07-29T05:28:09;95984.94;;;22.07;49.53
63929;BME280;50105;46.522;6.626;2022-07-29T05:30:36;95989.38;;;22.06;49.78
63929;BME280;50105;46.522;6.626;2022-07-29T05:33:02;95986.63;;;22.08;49.82
63929;BME280;50105;46.522;6.626;2022-07-29T05:35:29;95991.91;;;22.08;49.75
63929;BME280;50105;46.522;6.626;2022-07-29T05:37:55;95993.56;;;22.09;49.85
63929;BME280;50105;46.522;6.626;2022-07-29T05:40:21;95986.63;;;22.08;49.88
63929;BME280;50105;46.522;6.626;2022-07-29T05:42:48;95986.63;;;22.08;49.92
63929;BME280;50105;46.522;6.626;2022-07-29T05:45:14;95983.00;;;22.09;50.41
63929;BME280;50105;46.522;6.626;2022-07-29T05:47:41;95997.16;;;22.08;49.93
63929;BME280;50105;46.522;6.626;2022-07-29T05:50:07;95989.13;;;22.09;50.09
63929;BME280;50105;46.522;6.626;2022-07-29T05:52:34;96000.50;;;22.10;50.50
63929;BME280;50105;46.522;6.626;2022-07-29T05:55:01;95998.84;;;22.09;50.16
63929;BME280;50105;46.522;6.626;2022-07-29T05:57:30;96007.44;;;22.11;50.45
63929;BME280;50105;46.522;6.626;2022-07-29T05:59:57;96012.88;;;22.09;50.33
63929;BME280;50105;46.522;6.626;2022-07-29T06:02:23;96013.69;;;22.10;50.37
63929;BME280;50105;46.522;6.626;2022-07-29T06:04:50;96016.34;;;22.10;50.21
63929;BME280;50105;46.522;6.626;2022-07-29T06:07:16;96012.03;;;22.09;50.66
63929;BME280;50105;46.522;6.626;2022-07-29T06:09:43;96004.97;;;22.09;50.66
63929;BME280;50105;46.522;6.626;2022-07-29T06:12:09;96015.50;;;22.09;50.59
63929;BME280;50105;46.522;6.626;2022-07-29T06:14:36;96007.72;;;22.08;50.96
63929;BME280;50105;46.522;6.626;2022-07-29T06:17:04;96007.72;;;22.08;50.48
63929;BME280;50105;46.522;6.626;2022-07-29T06:19:33;96012.03;;;22.09;50.68
63929;BME280;50105;46.522;6.626;2022-07-29T06:22:00;96007.72;;;22.08;51.04
63929;BME280;50105;46.522;6.626;2022-07-29T06:24:26;96013.81;;;22.08;50.69
63929;BME280;50105;46.522;6.626;2022-07-29T06:26:53;96018.16;;;22.09;50.85
63929;BME280;50105;46.522;6.626;2022-07-29T06:29:19;96018.16;;;22.09;50.96
63929;BME280;50105;46.522;6.626;2022-07-29T06:31:46;96032.16;;;22.10;51.08
63929;BME280;50105;46.522;6.626;2022-07-29T06:34:12;96032.16;;;22.10;51.43
63929;BME280;50105;46.522;6.626;2022-07-29T06:36:40;96032.16;;;22.10;51.42
63929;BME280;50105;46.522;6.626;2022-07-29T06:39:07;96031.34;;;22.09;51.20
63929;BME280;50105;46.522;6.626;2022-07-29T06:41:34;96032.16;;;22.10;51.72
63929;BME280;50105;46.522;6.626;2022-07-29T06:44:00;96033.81;;;22.11;51.55
63929;BME280;50105;46.522;6.626;2022-07-29T06:46:27;96028.53;;;22.11;51.42
63929;BME280;50105;46.522;6.626;2022-07-29T06:48:54;96034.66;;;22.12;51.73
63929;BME280;50105;46.522;6.626;2022-07-29T06:51:20;96031.91;;;22.13;51.65
63929;BME280;50105;46.522;6.626;2022-07-29T06:53:49;96022.31;;;22.12;52.20
63929;BME280;50105;46.522;6.626;2022-07-29T06:56:27;96028.41;;;22.13;52.06
63929;BME280;50105;46.522;6.626;2022-07-29T06:58:54;96030.25;;;22.12;52.21
63929;BME280;50105;46.522;6.626;2022-07-29T07:01:20;96021.34;;;22.13;52.16
63929;BME280;50105;46.522;6.626;2022-07-29T07:03:47;96023.13;;;22.13;52.21
63929;BME280;50105;46.522;6.626;2022-07-29T07:06:13;96028.28;;;22.14;52.40
63929;BME280;50105;46.522;6.626;2022-07-29T07:08:40;96023.84;;;22.15;52.16
63929;BME280;50105;46.522;6.626;2022-07-29T07:11:06;96033.56;;;22.14;52.31
63929;BME280;50105;46.522;6.626;2022-07-29T07:13:33;96033.44;;;22.16;52.41
63929;BME280;50105;46.522;6.626;2022-07-29T07:16:02;96036.94;;;22.16;52.92
63929;BME280;50105;46.522;6.626;2022-07-29T07:18:29;96035.22;;;22.15;52.66
63929;BME280;50105;46.522;6.626;2022-07-29T07:20:56;96031.66;;;22.16;52.82
63929;BME280;50105;46.522;6.626;2022-07-29T07:23:22;96026.38;;;22.16;53.06
63929;BME280;50105;46.522;6.626;2022-07-29T07:25:49;96030.66;;;22.17;52.85
63929;BME280;50105;46.522;6.626;2022-07-29T07:28:15;96028.03;;;22.17;53.01
63929;BME280;50105;46.522;6.626;2022-07-29T07:30:42;96038.59;;;22.17;53.40
63929;BME280;50105;46.522;6.626;2022-07-29T07:33:08;96037.59;;;22.18;53.44
63929;BME280;50105;46.522;6.626;2022-07-29T07:35:35;96045.53;;;22.18;53.54
63929;BME280;50105;46.522;6.626;2022-07-29T07:38:01;96051.66;;;22.19;53.58
63929;BME280;50105;46.522;6.626;2022-07-29T07:40:28;96048.88;;;22.20;53.71
63929;BME280;50105;46.522;6.626;2022-07-29T07:42:54;96044.41;;;22.21;53.96
63929;BME280;50105;46.522;6.626;2022-07-29T07:45:21;96050.53;;;22.21;53.74
63929;BME280;50105;46.522;6.626;2022-07-29T07:50:14;96058.47;;;22.21;53.90
63929;BME280;50105;46.522;6.626;2022-07-29T07:52:48;96062.78;;;22.22;54.36
63929;BME280;50105;46.522;6.626;2022-07-29T07:55:15;96071.66;;;22.21;54.18
63929;BME280;50105;46.522;6.626;2022-07-29T07:57:41;96068.03;;;22.22;54.34
63929;BME280;50105;46.522;6.626;2022-07-29T08:00:08;96070.69;;;22.22;54.30
63929;BME280;50105;46.522;6.626;2022-07-29T08:02:34;96064.44;;;22.24;54.42
63929;BME280;50105;46.522;6.626;2022-07-29T08:05:01;96066.13;;;22.25;54.76
63929;BME280;50105;46.522;6.626;2022-07-29T08:07:27;96058.22;;;22.25;54.30
63929;BME280;50105;46.522;6.626;2022-07-29T08:09:55;96059.03;;;22.25;54.79
63929;BME280;50105;46.522;6.626;2022-07-29T08:12:21;96061.66;;;22.25;54.63
63929;BME280;50105;46.522;6.626;2022-07-29T08:14:48;96061.53;;;22.27;54.51
63929;BME280;50105;46.522;6.626;2022-07-29T08:17:14;96065.84;;;22.28;55.15
63929;BME280;50105;46.522;6.626;2022-07-29T08:19:41;96065.84;;;22.28;54.96
63929;BME280;50105;46.522;6.626;2022-07-29T08:22:07;96066.81;;;22.27;54.86
63929;BME280;50105;46.522;6.626;2022-07-29T08:24:33;96058.91;;;22.27;54.93
63929;BME280;50105;46.522;6.626;2022-07-29T08:27:13;96064.19;;;22.27;55.05
63929;BME280;50105;46.522;6.626;2022-07-29T08:29:59;96071.13;;;22.28;55.37
63929;BME280;50105;46.522;6.626;2022-07-29T08:32:26;96071.97;;;22.28;55.34
63929;BME280;50105;46.522;6.626;2022-07-29T08:35:14;96080.00;;;22.27;55.19
63929;BME280;50105;46.522;6.626;2022-07-29T08:37:40;96081.69;;;22.28;55.45
63929;BME280;50105;46.522;6.626;2022-07-29T08:40:08;96072.09;;;22.27;55.29
63929;BME280;50105;46.522;6.626;2022-07-29T08:42:34;96071.13;;;22.28;55.46
63929;BME280;50105;46.522;6.626;2022-07-29T08:45:02;96069.44;;;22.27;55.53
63929;BME280;50105;46.522;6.626;2022-07-29T08:47:28;96072.81;;;22.29;55.40
63929;BME280;50105;46.522;6.626;2022-07-29T08:49:55;96073.75;;;22.28;55.73
63929;BME280;50105;46.522;6.626;2022-07-29T08:52:22;96074.59;;;22.28;55.60
63929;BME280;50105;46.522;6.626;2022-07-29T08:54:52;96066.69;;;22.28;55.68
63929;BME280;50105;46.522;6.626;2022-07-29T08:57:19;96067.53;;;22.29;55.68
63929;BME280;50105;46.522;6.626;2022-07-29T08:59:47;96075.44;;;22.29;56.09
63929;BME280;50105;46.522;6.626;2022-07-29T09:02:19;96078.09;;;22.29;56.21
63929;BME280;50105;46.522;6.626;2022-07-29T09:04:46;96082.25;;;22.31;56.04
63929;BME280;50105;46.522;6.626;2022-07-29T09:07:16;96077.25;;;22.28;55.72
63929;BME280;50105;46.522;6.626;2022-07-29T09:09:43;96084.19;;;22.29;56.16
63929;BME280;50105;46.522;6.626;2022-07-29T09:12:10;96085.03;;;22.30;56.18
63929;BME280;50105;46.522;6.626;2022-07-29T09:14:55;96090.31;;;22.30;56.07
63929;BME280;50105;46.522;6.626;2022-07-29T09:20:08;96091.28;;;22.29;56.31
63929;BME280;50105;46.522;6.626;2022-07-29T09:22:35;96094.75;;;22.29;56.20
63929;BME280;50105;46.522;6.626;2022-07-29T09:25:07;96093.09;;;22.28;56.14
63929;BME280;50105;46.522;6.626;2022-07-29T09:27:33;96095.72;;;22.28;56.37
63929;BME280;50105;46.522;6.626;2022-07-29T09:32:30;96085.03;;;22.30;56.68
63929;BME280;50105;46.522;6.626;2022-07-29T09:35:16;96091.13;;;22.30;56.82
63929;BME280;50105;46.522;6.626;2022-07-29T09:37:43;96092.81;;;22.31;56.39
63929;BME280;50105;46.522;6.626;2022-07-29T09:40:16;96092.94;;;22.30;56.72
63929;BME280;50105;46.522;6.626;2022-07-29T09:42:43;96090.31;;;22.30;56.88
63929;BME280;50105;46.522;6.626;2022-07-29T09:45:10;96096.28;;;22.32;56.77
63929;BME280;50105;46.522;6.626;2022-07-29T09:47:41;96095.59;;;22.30;56.66
63929;BME280;50105;46.522;6.626;2022-07-29T09:50:08;96096.41;;;22.30;56.80
63929;BME280;50105;46.522;6.626;2022-07-29T09:52:41;96086.69;;;22.31;57.05
63929;BME280;50105;46.522;6.626;2022-07-29T09:55:10;96091.97;;;22.31;57.22
63929;BME280;50105;46.522;6.626;2022-07-29T09:57:43;96096.41;;;22.30;56.85
63929;BME280;50105;46.522;6.626;2022-07-29T10:00:11;96095.59;;;22.30;56.87
63929;BME280;50105;46.522;6.626;2022-07-29T10:02:39;96095.59;;;22.30;56.88
63929;BME280;50105;46.522;6.626;2022-07-29T10:05:16;96105.88;;;22.33;56.81
63929;BME280;50105;46.522;6.626;2022-07-29T10:10:09;96091.97;;;22.31;57.14
63929;BME280;50105;46.522;6.626;2022-07-29T10:12:48;96095.59;;;22.30;57.26
63929;BME280;50105;46.522;6.626;2022-07-29T10:15:15;96091.84;;;22.32;57.01
63929;BME280;50105;46.522;6.626;2022-07-29T10:17:41;96100.88;;;22.30;57.35
63929;BME280;50105;46.522;6.626;2022-07-29T10:20:08;96095.59;;;22.30;57.04
63929;BME280;50105;46.522;6.626;2022-07-29T10:22:41;96099.91;;;22.31;57.42
63929;BME280;50105;46.522;6.626;2022-07-29T10:25:19;96098.09;;;22.31;57.50
63929;BME280;50105;46.522;6.626;2022-07-29T10:27:46;96105.88;;;22.33;57.39
63929;BME280;50105;46.522;6.626;2022-07-29T10:30:14;96104.19;;;22.32;57.41
63929;BME280;50105;46.522;6.626;2022-07-29T10:38:10;96115.84;;;22.29;57.31
63929;BME280;50105;46.522;6.626;2022-07-29T10:43:35;96108.78;;;22.30;57.80
63929;BME280;50105;46.522;6.626;2022-07-29T10:46:07;96111.44;;;22.30;57.84
63929;BME280;50105;46.522;6.626;2022-07-29T10:48:35;96111.44;;;22.30;57.58
63929;BME280;50105;46.522;6.626;2022-07-29T10:51:11;96115.72;;;22.31;57.60
63929;BME280;50105;46.522;6.626;2022-07-29T10:53:49;96114.75;;;22.32;57.89
63929;BME280;50105;46.522;6.626;2022-07-29T10:56:23;96125.31;;;22.32;57.62
63929;BME280;50105;46.522;6.626;2022-07-29T11:01:36;96126.41;;;22.29;58.01
63929;BME280;50105;46.522;6.626;2022-07-29T11:04:11;96135.19;;;22.30;57.80
63929;BME280;50105;46.522;6.626;2022-07-29T11:09:28;96156.31;;;22.30;57.96
63929;BME280;50105;46.522;6.626;2022-07-29T11:12:03;96164.22;;;22.30;58.01
63929;BME280;50105;46.522;6.626;2022-07-29T11:17:15;96193.38;;;22.28;57.81
63929;BME280;50105;46.522;6.626;2022-07-29T11:19:42;96210.75;;;22.31;58.18
63929;BME280;50105;46.522;6.626;2022-07-29T11:22:33;96223.28;;;22.29;58.17
63929;BME280;50105;46.522;6.626;2022-07-29T11:25:13;96223.41;;;22.27;58.09
63929;BME280;50105;46.522;6.626;2022-07-29T11:27:42;96240.91;;;22.28;58.08
63929;BME280;50105;46.522;6.626;2022-07-29T11:30:11;96243.53;;;22.28;58.24
63929;BME280;50105;46.522;6.626;2022-07-29T11:32:40;96252.31;;;22.29;58.16
63929;BME280;50105;46.522;6.626;2022-07-29T11:35:20;96250.63;;;22.28;58.41
63929;BME280;50105;46.522;6.626;2022-07-29T11:38:23;96255.91;;;22.28;58.38
63929;BME280;50105;46.522;6.626;2022-07-29T11:43:48;96257.72;;;22.27;58.54
63929;BME280;50105;46.522;6.626;2022-07-29T11:46:16;96265.63;;;22.27;58.62
63929;BME280;50105;46.522;6.626;2022-07-29T11:48:50;96263.81;;;22.28;58.77
63929;BME280;50105;46.522;6.626;2022-07-29T11:51:17;96263.81;;;22.28;58.68
63929;BME280;50105;46.522;6.626;2022-07-29T11:53:58;96266.44;;;22.28;58.43
63929;BME280;50105;46.522;6.626;2022-07-29T11:56:33;96264.78;;;22.27;58.74
63929;BME280;50105;46.522;6.626;2022-07-29T11:59:05;96268.41;;;22.26;58.90
63929;BME280;50105;46.522;6.626;2022-07-29T12:01:33;96257.84;;;22.26;58.39
63929;BME280;50105;46.522;6.626;2022-07-29T12:04:04;96263.94;;;22.26;58.92
63929;BME280;50105;46.522;6.626;2022-07-29T12:06:51;96264.78;;;22.27;59.04
63929;BME280;50105;46.522;6.626;2022-07-29T12:09:18;96265.63;;;22.27;58.91
63929;BME280;50105;46.522;6.626;2022-07-29T12:11:45;96270.06;;;22.27;58.70
63929;BME280;50105;46.522;6.626;2022-07-29T12:14:29;96263.13;;;22.26;59.18
63929;BME280;50105;46.522;6.626;2022-07-29T12:16:56;96264.78;;;22.27;58.67
63929;BME280;50105;46.522;6.626;2022-07-29T12:19:23;96271.03;;;22.26;58.78
63929;BME280;50105;46.522;6.626;2022-07-29T12:21:51;96279.78;;;22.26;58.66
63929;BME280;50105;46.522;6.626;2022-07-29T12:24:22;96276.31;;;22.26;59.16
63929;BME280;50105;46.522;6.626;2022-07-29T12:26:53;96282.56;;;22.25;58.93
63929;BME280;50105;46.522;6.626;2022-07-29T12:29:20;96281.59;;;22.26;59.30
63929;BME280;50105;46.522;6.626;2022-07-29T12:32:00;96271.16;;;22.24;59.26
63929;BME280;50105;46.522;6.626;2022-07-29T12:34:27;96277.28;;;22.25;58.94
63929;BME280;50105;46.522;6.626;2022-07-29T12:36:54;96278.13;;;22.25;59.26
63929;BME280;50105;46.522;6.626;2022-07-29T12:39:21;96275.59;;;22.24;59.42
63929;BME280;50105;46.522;6.626;2022-07-29T12:41:48;96283.50;;;22.24;59.01
63929;BME280;50105;46.522;6.626;2022-07-29T12:44:14;96277.28;;;22.25;59.38
63929;BME280;50105;46.522;6.626;2022-07-29T12:46:41;96286.16;;;22.24;59.37
63929;BME280;50105;46.522;6.626;2022-07-29T12:49:07;96280.88;;;22.24;59.48
63929;BME280;50105;46.522;6.626;2022-07-29T12:51:36;96280.06;;;22.23;59.42
63929;BME280;50105;46.522;6.626;2022-07-29T12:56:37;96285.34;;;22.23;59.75
63929;BME280;50105;46.522;6.626;2022-07-29T13:01:42;96279.22;;;22.22;59.59
63929;BME280;50105;46.522;6.626;2022-07-29T13:04:09;96284.47;;;22.22;59.20
63929;BME280;50105;46.522;6.626;2022-07-29T13:06:36;96287.84;;;22.25;59.73
63929;BME280;50105;46.522;6.626;2022-07-29T13:11:43;96286.16;;;22.24;59.71
63929;BME280;50105;46.522;6.626;2022-07-29T13:19:42;96295.03;;;22.22;59.78
63929;BME280;50105;46.522;6.626;2022-07-29T13:22:09;96289.75;;;22.22;59.42
63929;BME280;50105;46.522;6.626;2022-07-29T13:24:45;96297.56;;;22.24;59.42
63929;BME280;50105;46.522;6.626;2022-07-29T13:27:19;96295.03;;;22.22;60.04
63929;BME280;50105;46.522;6.626;2022-07-29T13:29:46;96295.03;;;22.22;60.02
63929;BME280;50105;46.522;6.626;2022-07-29T13:32:12;96297.69;;;22.22;59.90
63929;BME280;50105;46.522;6.626;2022-07-29T13:34:39;96295.03;;;22.22;59.72
63929;BME280;50105;46.522;6.626;2022-07-29T13:39:32;96307.28;;;22.24;59.94
63929;BME280;50105;46.522;6.626;2022-07-29T13:41:58;96302.00;;;22.24;59.64
63929;BME280;50105;46.522;6.626;2022-07-29T13:44:26;96302.84;;;22.24;60.00
63929;BME280;50105;46.522;6.626;2022-07-29T13:46:52;96296.72;;;22.24;59.77
63929;BME280;50105;46.522;6.626;2022-07-29T13:49:19;96299.34;;;22.24;60.03
63929;BME280;50105;46.522;6.626;2022-07-29T13:51:45;96301.06;;;22.25;60.10
63929;BME280;50105;46.522;6.626;2022-07-29T13:54:12;96296.72;;;22.24;59.80
63929;BME280;50105;46.522;6.626;2022-07-29T13:56:38;96293.13;;;22.25;60.07
63929;BME280;50105;46.522;6.626;2022-07-29T13:59:04;96295.78;;;22.25;59.71
63929;BME280;50105;46.522;6.626;2022-07-29T14:01:31;96298.41;;;22.25;60.08
63929;BME280;50105;46.522;6.626;2022-07-29T14:03:57;96289.50;;;22.26;60.16
63929;BME280;50105;46.522;6.626;2022-07-29T14:06:24;96282.56;;;22.25;60.30
63929;BME280;50105;46.522;6.626;2022-07-29T14:08:50;96269.22;;;22.26;59.76
63929;BME280;50105;46.522;6.626;2022-07-29T14:11:17;96271.72;;;22.28;59.72
63929;BME280;50105;46.522;6.626;2022-07-29T14:13:43;96267.19;;;22.30;59.81